Time;durP1;ratioP1;P1;durP2;ratioP2;P2;SDS_P1;SDS_P2;PMS_P1;PMS_P2;Temp;Humidity;BMP_temperature;BMP_pressure;BME280_temperature;BME280_humidity;BME280_pressure;Samples;Min_cycle;Max_cycle;Signal;HPM_P1;HPM_P2
2022/07/15 00:04:01;;;;;;;1.77;1.13;;;;;;;21.09;37.90;100490.34;10377081;28;20049;-56
2022/07/15 00:09:02;;;;;;;2.28;0.70;;;;;;;20.99;38.42;100489.78;10384569;28;20111;-58
2022/07/15 00:14:04;;;;;;;3.03;0.75;;;;;;;20.90;38.67;100490.91;10380351;28;20318;-56
2022/07/15 00:19:05;;;;;;;1.90;0.88;;;;;;;20.87;38.96;100491.22;10379603;28;20123;-54
2022/07/15 00:24:07;;;;;;;1.75;1.00;;;;;;;20.95;38.81;100493.88;10382811;28;20111;-55
2022/07/15 00:29:08;;;;;;;4.82;1.23;;;;;;;20.99;39.18;100495.19;10381318;28;20409;-56
2022/07/15 00:34:10;;;;;;;4.35;0.85;;;;;;;20.94;38.50;100494.88;10364319;28;20130;-56
2022/07/15 00:39:11;;;;;;;2.35;0.85;;;;;;;20.90;38.53;100488.19;10383594;28;20183;-56
2022/07/15 00:44:12;;;;;;;2.67;1.05;;;;;;;20.87;38.34;100496.66;10377382;28;20885;-59
2022/07/15 00:49:14;;;;;;;2.90;0.90;;;;;;;20.78;39.09;100494.03;10376159;28;20060;-55
2022/07/15 00:54:16;;;;;;;1.63;0.80;;;;;;;20.65;38.54;100496.50;10378004;28;20053;-55
2022/07/15 00:59:21;;;;;;;3.78;1.15;;;;;;;20.60;39.90;100507.03;10373033;28;20796;-59
2022/07/15 01:04:23;;;;;;;2.67;0.90;;;;;;;20.63;39.59;100490.44;10374083;28;20052;-55
2022/07/15 01:09:25;;;;;;;2.30;0.75;;;;;;;20.66;39.36;100490.94;10378324;28;20080;-54
2022/07/15 01:14:26;;;;;;;3.05;0.98;;;;;;;20.69;40.07;100505.97;10378844;28;20072;-55
2022/07/15 01:19:28;;;;;;;1.52;0.90;;;;;;;20.64;39.75;100508.34;10371678;28;20044;-56
2022/07/15 01:24:29;;;;;;;3.28;1.10;;;;;;;20.52;40.61;100521.44;10370453;28;20144;-56
2022/07/15 01:29:31;;;;;;;3.38;1.25;;;;;;;20.56;40.38;100521.94;10374070;28;20068;-57
2022/07/15 01:34:32;;;;;;;2.58;1.10;;;;;;;20.54;40.48;100522.13;10378419;28;20499;-54
2022/07/15 01:39:33;;;;;;;2.17;0.70;;;;;;;20.49;40.84;100528.09;10372844;28;20048;-56
2022/07/15 01:44:38;;;;;;;1.25;0.70;;;;;;;20.38;40.57;100525.78;10371622;28;20120;-56
2022/07/15 01:49:40;;;;;;;1.33;0.80;;;;;;;20.44;40.31;100525.06;10372868;28;20773;-54
2022/07/15 01:54:41;;;;;;;2.03;1.17;;;;;;;20.37;40.58;100529.53;10372605;28;20088;-55
2022/07/15 01:59:43;;;;;;;3.15;1.20;;;;;;;20.27;40.57;100518.97;10369285;28;20475;-57
2022/07/15 02:04:44;;;;;;;3.60;1.30;;;;;;;20.27;40.30;100520.84;10376519;28;20108;-54
2022/07/15 02:09:46;;;;;;;2.95;0.70;;;;;;;20.30;40.39;100520.47;10378087;28;20075;-56
2022/07/15 02:14:47;;;;;;;1.95;0.90;;;;;;;20.29;40.54;100526.88;10359327;28;20302;-56
2022/07/15 02:19:49;;;;;;;1.77;0.68;;;;;;;20.28;40.96;100514.38;10370304;28;20058;-58
2022/07/15 02:24:50;;;;;;;2.03;0.88;;;;;;;20.25;41.22;100510.22;10375523;28;20296;-58
2022/07/15 02:29:52;;;;;;;2.55;1.13;;;;;;;20.21;40.85;100516.97;10376056;28;20045;-57
2022/07/15 02:34:54;;;;;;;1.40;0.75;;;;;;;20.16;41.13;100511.25;10376635;28;20528;-57
2022/07/15 02:39:56;;;;;;;1.95;0.57;;;;;;;20.17;41.04;100525.63;10371940;28;20111;-56
2022/07/15 02:44:57;;;;;;;2.28;0.90;;;;;;;20.19;41.28;100520.88;10368905;28;20049;-59
2022/07/15 02:49:59;;;;;;;1.67;0.90;;;;;;;20.17;41.11;100533.75;10367471;28;20347;-58
2022/07/15 02:55:01;;;;;;;1.83;0.70;;;;;;;20.19;41.00;100539.78;10377499;28;20541;-59
2022/07/15 03:00:05;;;;;;;2.38;0.85;;;;;;;20.12;42.01;100536.97;10374728;28;20515;-57
2022/07/15 03:05:07;;;;;;;2.95;1.00;;;;;;;20.10;41.76;100552.53;10373060;28;20230;-57
2022/07/15 03:10:10;;;;;;;2.63;1.23;;;;;;;20.07;41.96;100551.03;10374293;28;20094;-57
2022/07/15 03:15:12;;;;;;;2.20;0.90;;;;;;;20.07;42.50;100553.75;10375709;28;20092;-57
2022/07/15 03:20:14;;;;;;;1.83;0.90;;;;;;;19.93;42.97;100552.63;10376342;28;20144;-58
2022/07/15 03:25:15;;;;;;;2.00;1.10;;;;;;;19.96;42.42;100563.06;10375966;28;20092;-57
2022/07/15 03:30:17;;;;;;;2.40;1.00;;;;;;;19.91;42.18;100570.88;10374018;28;20174;-58
2022/07/15 03:35:18;;;;;;;3.28;0.90;;;;;;;19.87;42.12;100574.94;10371161;28;20898;-59
2022/07/15 03:40:19;;;;;;;1.98;0.80;;;;;;;19.83;42.27;100583.56;10387179;28;20072;-56
2022/07/15 03:45:21;;;;;;;2.28;0.70;;;;;;;19.81;42.61;100580.22;10381429;28;20053;-59
2022/07/15 03:50:22;;;;;;;1.95;0.88;;;;;;;19.77;42.65;100583.28;10375469;28;20830;-55
2022/07/15 03:55:24;;;;;;;2.47;0.80;;;;;;;19.74;42.63;100591.69;10371577;28;20581;-59
2022/07/15 04:00:25;;;;;;;4.75;1.33;;;;;;;19.67;43.83;100593.41;10375232;28;20107;-64
2022/07/15 04:05:27;;;;;;;3.13;1.20;;;;;;;19.55;42.87;100595.63;10374986;28;20503;-63
2022/07/15 04:10:28;;;;;;;1.45;0.80;;;;;;;19.39;44.21;100584.88;10378695;28;20870;-64
2022/07/15 04:15:29;;;;;;;1.60;0.77;;;;;;;19.50;43.59;100597.16;10379843;28;20119;-62
2022/07/15 04:20:31;;;;;;;3.72;1.15;;;;;;;19.42;43.89;100590.78;10396631;22;20052;-61
2022/07/15 04:25:32;;;;;;;3.90;1.23;;;;;;;19.40;44.43;100591.97;10427194;28;20073;-61
2022/07/15 04:30:34;;;;;;;1.40;0.63;;;;;;;19.38;44.44;100600.25;10420364;28;20064;-61
2022/07/15 04:35:35;;;;;;;2.80;0.88;;;;;;;19.47;44.51;100592.13;10413912;28;20182;-62
2022/07/15 04:40:39;;;;;;;1.70;0.93;;;;;;;19.49;45.46;100601.75;10425951;28;20420;-62
2022/07/15 04:45:45;;;;;;;3.50;0.85;;;;;;;19.43;45.61;100600.56;10425262;28;20565;-62
2022/07/15 04:50:49;;;;;;;2.90;0.88;;;;;;;19.48;45.98;100607.31;10422530;28;20747;-62
2022/07/15 04:55:51;;;;;;;2.17;1.00;;;;;;;19.48;46.26;100604.59;10425763;28;20171;-63
2022/07/15 05:00:52;;;;;;;4.25;1.33;;;;;;;19.45;45.76;100605.78;10395682;28;20049;-63
2022/07/15 05:05:53;;;;;;;3.80;1.25;;;;;;;19.41;46.24;100610.72;10399872;28;20552;-63
2022/07/15 05:10:55;;;;;;;4.10;1.25;;;;;;;19.40;46.31;100613.59;10408379;28;20101;-63
2022/07/15 05:15:56;;;;;;;4.45;0.85;;;;;;;19.40;46.30;100618.97;10406121;28;21032;-62
2022/07/15 05:20:58;;;;;;;5.72;1.65;;;;;;;19.38;47.15;100627.25;10406090;28;20048;-63
2022/07/15 05:25:59;;;;;;;1.48;0.70;;;;;;;19.48;46.80;100632.44;10406401;28;20147;-63
2022/07/15 05:31:01;;;;;;;2.67;1.10;;;;;;;19.50;47.48;100625.03;10402169;28;20124;-63
2022/07/15 05:36:04;;;;;;;4.63;1.30;;;;;;;19.58;46.07;100637.66;10407544;28;20054;-63
2022/07/15 05:41:05;;;;;;;6.22;1.17;;;;;;;19.69;47.04;100649.94;10406929;28;20049;-62
2022/07/15 05:46:06;;;;;;;3.13;0.90;;;;;;;19.78;47.59;100651.63;10405287;28;20190;-63
2022/07/15 05:51:08;;;;;;;2.85;0.80;;;;;;;19.98;46.61;100654.75;10400713;28;20079;-63
2022/07/15 05:56:09;;;;;;;3.42;1.10;;;;;;;19.96;48.14;100660.31;10406781;28;20320;-62
2022/07/15 06:01:11;;;;;;;4.07;0.90;;;;;;;20.03;48.49;100668.59;10402264;28;20726;-63
2022/07/15 06:06:13;;;;;;;4.45;1.00;;;;;;;20.11;48.79;100676.63;10384569;28;20048;-61
2022/07/15 06:11:14;;;;;;;3.55;0.90;;;;;;;19.96;48.65;100662.19;10395441;28;20630;-62
2022/07/15 06:16:16;;;;;;;5.55;0.93;;;;;;;20.14;49.82;100676.28;10398147;28;20076;-63
2022/07/15 06:21:18;;;;;;;2.70;1.23;;;;;;;20.19;48.35;100685.75;10379844;28;20087;-62
2022/07/15 06:26:20;;;;;;;3.00;1.00;;;;;;;20.19;48.78;100689.31;10391710;28;20742;-65
2022/07/15 06:31:21;;;;;;;13.80;2.85;;;;;;;20.27;47.79;100683.00;10403695;28;20836;-62
2022/07/15 06:36:23;;;;;;;4.20;1.23;;;;;;;20.27;48.83;100683.00;10407354;28;20076;-60
2022/07/15 06:41:25;;;;;;;1.98;0.90;;;;;;;20.46;48.57;100668.19;10405234;28;22037;-62
2022/07/15 06:46:31;;;;;;;8.00;1.30;;;;;;;20.69;47.89;100683.63;10400833;28;20186;-62
2022/07/15 06:51:32;;;;;;;2.15;1.02;;;;;;;20.78;47.56;100677.16;10396592;28;20545;-65
2022/07/15 06:56:34;;;;;;;2.08;0.75;;;;;;;20.70;48.14;100675.31;10402937;28;20119;-60
2022/07/15 07:01:36;;;;;;;3.70;1.60;;;;;;;20.68;48.11;100676.53;10400169;28;20139;-61
2022/07/15 07:06:38;;;;;;;4.75;0.90;;;;;;;20.69;48.88;100662.84;10400569;28;20053;-62
2022/07/15 07:11:40;;;;;;;3.17;0.70;;;;;;;20.76;49.20;100671.94;10400776;28;20049;-62
2022/07/15 07:16:42;;;;;;;2.80;0.70;;;;;;;20.90;47.39;100677.59;10403484;28;21031;-62
2022/07/15 07:21:43;;;;;;;1.92;0.60;;;;;;;21.08;46.54;100683.50;10400673;28;20143;-62
2022/07/15 07:26:45;;;;;;;2.20;0.90;;;;;;;21.13;46.69;100678.38;10400414;28;20145;-62
2022/07/15 07:31:47;;;;;;;3.22;0.68;;;;;;;21.28;46.97;100683.00;10402226;28;20581;-61
2022/07/15 07:36:48;;;;;;;2.47;0.80;;;;;;;21.40;46.37;100692.34;10384199;28;20102;-62
2022/07/15 07:41:53;;;;;;;2.13;0.80;;;;;;;21.50;45.80;100692.13;10398478;28;20139;-62
2022/07/15 07:46:54;;;;;;;2.03;0.73;;;;;;;21.66;46.03;100691.09;10405901;28;20123;-62
2022/07/15 07:51:57;;;;;;;3.70;1.00;;;;;;;21.71;45.45;100683.28;10383169;28;20573;-63
2022/07/15 07:56:58;;;;;;;2.70;1.00;;;;;;;21.84;45.17;100680.75;10410796;28;20699;-62
2022/07/15 08:02:00;;;;;;;5.35;0.90;;;;;;;21.76;44.32;100670.00;10407770;28;20059;-62
2022/07/15 08:07:02;;;;;;;3.40;1.23;;;;;;;21.55;46.08;100689.69;10409170;28;20061;-62
2022/07/15 08:12:03;;;;;;;3.55;1.05;;;;;;;21.72;46.59;100682.22;10404772;28;20108;-64
2022/07/15 08:17:05;;;;;;;4.18;1.35;;;;;;;21.92;45.07;100678.97;10403654;28;20122;-63
2022/07/15 08:22:06;;;;;;;5.07;1.15;;;;;;;22.05;44.79;100676.44;10403898;28;20060;-62
2022/07/15 08:27:16;;;;;;;4.05;1.25;;;;;;;22.32;44.88;100687.63;10389674;28;20056;-63
2022/07/15 08:32:17;;;;;;;1.70;1.07;;;;;;;22.21;42.54;100684.34;10406545;28;20155;-64
2022/07/15 08:37:19;;;;;;;2.10;1.42;;;;;;;22.30;43.15;100684.25;10406330;28;20141;-63
2022/07/15 08:42:21;;;;;;;3.13;1.17;;;;;;;22.57;42.70;100669.97;10405366;28;20129;-64
2022/07/15 08:47:25;;;;;;;2.30;1.48;;;;;;;22.99;41.05;100677.50;10407746;28;20047;-61
2022/07/15 08:52:47;;;;;;;2.88;1.55;;;;;;;23.56;39.68;100670.25;10403074;28;20057;-63
2022/07/15 08:57:50;;;;;;;3.75;1.70;;;;;;;23.62;39.73;100673.00;10406172;28;20132;-61
2022/07/15 09:02:52;;;;;;;;;;;;;;;23.84;39.16;100675.63;10406759;28;21334;-63
2022/07/15 09:08:04;;;;;;;3.47;1.60;;;;;;;23.85;38.32;100680.03;10408066;28;20362;-62
2022/07/15 09:13:05;;;;;;;3.13;1.77;;;;;;;23.58;38.88;100674.41;10405336;28;20273;-62
2022/07/15 09:18:15;;;;;;;3.70;1.45;;;;;;;23.49;39.65;100683.75;10407963;28;20485;-62
2022/07/15 09:23:22;;;;;;;2.88;1.40;;;;;;;22.73;39.31;100681.63;10405594;28;20285;-63
2022/07/15 09:28:38;;;;;;;3.97;1.90;;;;;;;22.70;41.09;100687.44;10404017;28;20152;-63
2022/07/15 09:33:43;;;;;;;4.15;1.70;;;;;;;23.25;39.87;100674.19;10402768;28;20923;-65
2022/07/15 09:39:01;;;;;;;2.00;1.42;;;;;;;23.73;38.91;100681.63;10400866;28;20063;-64
2022/07/15 09:44:11;;;;;;;3.60;1.50;;;;;;;24.03;37.13;100684.94;10386661;28;20061;-63
2022/07/15 09:49:22;;;;;;;2.97;2.28;;;;;;;24.77;36.38;100677.06;10403435;28;20140;-64
2022/07/15 09:54:30;;;;;;;8.75;2.47;;;;;;;25.29;35.16;100675.41;10386300;28;20652;-63
2022/07/15 09:59:31;;;;;;;3.60;1.88;;;;;;;25.22;35.55;100674.56;10383665;28;20141;-64
2022/07/15 10:04:41;;;;;;;4.03;1.98;;;;;;;24.97;34.33;100677.91;10391704;28;20048;-64
2022/07/15 10:09:43;;;;;;;3.00;2.00;;;;;;;25.17;33.46;100661.56;10399181;28;20049;-65
2022/07/15 10:15:02;;;;;;;3.43;1.83;;;;;;;25.61;33.67;100666.59;10404483;28;20135;-63
2022/07/15 10:20:41;;;;;;;3.13;2.00;;;;;;;25.07;33.71;100666.59;10396966;28;20306;-63
2022/07/15 10:26:04;;;;;;;3.92;1.90;;;;;;;24.86;33.36;100664.91;10402996;28;20051;-63
2022/07/15 10:31:13;;;;;;;1.85;1.65;;;;;;;24.84;33.54;100659.69;10417757;28;20049;-62
2022/07/15 10:36:15;;;;;;;2.10;1.52;;;;;;;24.84;34.52;100658.84;10390953;28;20145;-62
2022/07/15 10:41:21;;;;;;;4.38;2.05;;;;;;;24.94;33.39;100650.28;10403067;28;20144;-62
2022/07/15 10:46:28;;;;;;;3.42;1.88;;;;;;;25.58;33.48;100646.03;10399966;28;20060;-62
2022/07/15 10:51:35;;;;;;;3.75;2.00;;;;;;;25.34;31.83;100651.13;10399360;28;20072;-61
2022/07/15 10:56:42;;;;;;;2.38;1.50;;;;;;;24.56;33.33;100648.09;10385709;28;20055;-62
2022/07/15 11:01:46;;;;;;;1.95;1.63;;;;;;;23.72;34.69;100637.31;10401743;28;20151;-62
2022/07/15 11:07:02;;;;;;;2.83;1.77;;;;;;;23.47;35.60;100648.66;10399145;28;20138;-61
2022/07/15 11:12:04;;;;;;;4.47;2.00;;;;;;;23.51;36.03;100640.97;10390522;28;20056;-62
2022/07/15 11:17:05;;;;;;;4.55;2.13;;;;;;;23.74;35.53;100637.13;10397300;28;20135;-62
2022/07/15 11:22:09;;;;;;;4.22;2.38;;;;;;;24.31;35.00;100626.91;10393414;28;20122;-62
2022/07/15 11:27:10;;;;;;;3.15;1.65;;;;;;;24.62;34.29;100620.94;10398703;28;20057;-62
2022/07/15 11:32:13;;;;;;;2.92;1.40;;;;;;;24.65;34.06;100620.53;10404241;28;20783;-66
2022/07/15 11:37:18;;;;;;;;;;;;;;;24.87;33.71;100618.41;10405987;28;21422;-62
2022/07/15 11:47:53;;;;;;;1.85;1.27;;;;;;;25.31;34.71;100615.28;10405460;28;20112;-62
2022/07/15 11:52:57;;;;;;;2.90;1.50;;;;;;;25.14;34.11;100617.59;10393907;28;20159;-61
2022/07/15 11:57:59;;;;;;;3.40;1.30;;;;;;;24.77;34.17;100612.59;10394023;28;21615;-61
2022/07/15 12:03:08;;;;;;;4.47;1.67;;;;;;;24.90;32.70;100609.00;10399883;28;20059;-62
2022/07/15 12:08:09;;;;;;;4.05;1.20;;;;;;;24.82;33.02;100615.50;10396088;28;20041;-62
2022/07/15 12:13:12;;;;;;;2.63;1.33;;;;;;;25.28;32.10;100613.81;10397566;28;21267;-62
2022/07/15 12:18:13;;;;;;;3.33;1.67;;;;;;;25.97;32.13;100602.50;10397725;28;20056;-64
2022/07/15 12:23:17;;;;;;;2.97;1.50;;;;;;;25.46;30.53;100598.69;10397057;28;20060;-62
2022/07/15 12:28:32;;;;;;;2.00;1.25;;;;;;;25.55;32.04;100602.88;10393996;28;20044;-62
2022/07/15 12:33:35;;;;;;;3.28;1.90;;;;;;;25.62;30.32;100603.69;10372598;28;20457;-65
2022/07/15 12:38:37;;;;;;;;;;;;;;;25.13;30.60;100594.13;10393371;28;20058;-64
2022/07/15 12:44:00;;;;;;;3.08;1.45;;;;;;;25.22;31.77;100606.47;10394889;28;20003;-64
2022/07/15 12:49:01;;;;;;;;;;;;;;;25.34;30.14;100596.66;10388001;28;20147;-66
2022/07/15 12:54:07;;;;;;;1.98;1.10;;;;;;;25.73;31.23;100591.28;10387297;28;19936;-64
2022/07/15 12:59:08;;;;;;;2.55;1.25;;;;;;;26.06;29.90;100598.50;10393485;28;20750;-64
2022/07/15 13:04:10;;;;;;;1.88;1.00;;;;;;;26.32;29.16;100589.34;10387174;28;20117;-64
2022/07/15 13:09:13;;;;;;;2.45;1.10;;;;;;;26.28;29.18;100577.19;10390854;28;20060;-64
2022/07/15 13:14:14;;;;;;;2.40;0.80;;;;;;;26.57;29.25;100580.34;10390158;28;20076;-64
2022/07/15 13:19:15;;;;;;;1.63;0.95;;;;;;;25.97;28.92;100567.88;10397351;28;21030;-63
2022/07/15 13:24:17;;;;;;;3.35;1.02;;;;;;;25.74;29.35;100555.63;10396422;28;20563;-64
2022/07/15 13:29:18;;;;;;;2.67;1.60;;;;;;;25.76;29.02;100553.53;10398225;28;20159;-63
2022/07/15 13:34:20;;;;;;;2.03;0.70;;;;;;;26.09;28.91;100548.97;10395948;28;20164;-64
2022/07/15 13:39:21;;;;;;;1.25;0.80;;;;;;;26.40;28.40;100555.50;10397752;28;20081;-63
2022/07/15 13:44:26;;;;;;;1.45;0.90;;;;;;;26.48;28.02;100546.19;10396497;28;20053;-64
2022/07/15 13:54:47;;;;;;;1.92;0.88;;;;;;;26.03;28.25;100544.41;10398454;28;20056;-65
2022/07/15 13:59:49;;;;;;;1.33;0.73;;;;;;;25.83;28.08;100539.03;10400151;28;20206;-64
2022/07/15 14:04:51;;;;;;;4.03;0.70;;;;;;;25.73;28.13;100543.06;10396883;28;20146;-64
2022/07/15 14:09:52;;;;;;;0.88;0.50;;;;;;;25.75;28.88;100538.22;10397967;28;20060;-64
2022/07/15 14:14:54;;;;;;;2.47;0.88;;;;;;;25.77;29.44;100535.28;10395896;28;20040;-61
2022/07/15 14:19:55;;;;;;;1.60;0.90;;;;;;;25.58;29.18;100548.78;10394044;28;20420;-61
2022/07/15 14:24:57;;;;;;;0.85;0.52;;;;;;;25.76;29.25;100541.78;10397530;28;20518;-64
2022/07/15 14:29:59;;;;;;;2.40;0.53;;;;;;;25.62;28.74;100532.81;10411928;28;20075;-63
2022/07/15 14:35:03;;;;;;;1.60;0.90;;;;;;;25.33;28.62;100532.31;10415395;28;20230;-63
2022/07/15 14:40:05;;;;;;;3.10;0.60;;;;;;;25.30;28.78;100530.00;10417869;28;20239;-64
2022/07/15 14:45:08;;;;;;;3.03;0.80;;;;;;;25.27;28.16;100530.41;10416230;28;20130;-65
2022/07/15 14:50:09;;;;;;;0.90;0.60;;;;;;;25.29;28.04;100533.75;10417874;28;20056;-63
2022/07/15 14:55:11;;;;;;;1.80;0.80;;;;;;;25.17;28.47;100530.00;10418371;28;20157;-63
2022/07/15 15:00:14;;;;;;;2.10;0.80;;;;;;;25.10;28.28;100540.94;10423129;28;20724;-63
2022/07/15 15:05:15;;;;;;;2.03;0.75;;;;;;;24.92;28.98;100524.41;10407239;28;20916;-63
2022/07/15 15:10:16;;;;;;;3.35;0.95;;;;;;;24.90;28.82;100530.06;10417321;28;20290;-62
2022/07/15 15:15:19;;;;;;;2.35;0.82;;;;;;;24.89;28.74;100522.94;10422276;28;20505;-63
2022/07/15 15:20:26;;;;;;;1.40;0.40;;;;;;;24.90;28.23;100523.78;10367614;28;20123;-62
2022/07/15 15:30:55;;;;;;;4.80;0.50;;;;;;;24.62;29.29;100509.38;10414923;28;20117;-63
2022/07/15 15:35:56;;;;;;;1.45;0.73;;;;;;;24.62;29.66;100501.19;10398345;28;20277;-62
2022/07/15 15:40:58;;;;;;;1.38;0.70;;;;;;;24.68;28.74;100503.06;10412913;28;20059;-63
2022/07/15 15:46:01;;;;;;;1.92;0.70;;;;;;;24.69;28.87;100503.91;10410854;28;20515;-63
2022/07/15 15:51:02;;;;;;;3.10;0.70;;;;;;;24.59;28.78;100506.22;10413455;28;20151;-64
2022/07/15 15:56:04;;;;;;;2.03;0.90;;;;;;;24.63;29.65;100502.84;10417603;28;20417;-63
2022/07/15 16:01:06;;;;;;;0.95;0.50;;;;;;;24.63;28.35;100497.41;10408462;28;20328;-64
2022/07/15 16:06:07;;;;;;;2.25;0.90;;;;;;;24.42;28.64;100503.03;10412834;28;20252;-64
2022/07/15 16:11:09;;;;;;;1.90;0.77;;;;;;;24.32;29.35;100500.72;10413582;28;20049;-64
2022/07/15 16:16:11;;;;;;;1.80;0.80;;;;;;;24.39;29.00;100504.28;10413949;28;20048;-63
2022/07/15 16:21:13;;;;;;;0.80;0.50;;;;;;;24.41;29.23;100499.50;10418969;22;20040;-63
2022/07/15 16:26:14;;;;;;;1.48;0.63;;;;;;;24.45;28.36;100494.47;10428859;28;20140;-63
2022/07/15 16:31:16;;;;;;;2.45;0.50;;;;;;;24.27;29.17;100503.25;10432762;28;20202;-63
2022/07/15 16:36:18;;;;;;;2.03;0.80;;;;;;;24.25;29.34;100499.91;10437261;28;20150;-63
2022/07/15 16:41:19;;;;;;;3.67;0.77;;;;;;;24.13;28.71;100503.22;10437997;28;20517;-63
2022/07/15 16:46:22;;;;;;;1.55;0.85;;;;;;;24.25;29.06;100499.91;10433343;28;20072;-64
2022/07/15 16:51:24;;;;;;;1.80;0.60;;;;;;;24.27;29.95;100492.38;10439903;28;20230;-65
2022/07/15 16:56:25;;;;;;;1.65;0.65;;;;;;;24.24;28.81;100490.88;10421074;28;20384;-63
2022/07/15 17:01:27;;;;;;;2.67;0.80;;;;;;;23.91;29.40;100491.69;10434416;28;20213;-63
2022/07/15 17:06:28;;;;;;;1.45;0.80;;;;;;;23.80;28.79;100484.09;10434703;28;20134;-63
2022/07/15 17:11:30;;;;;;;2.25;0.80;;;;;;;23.81;28.81;100485.78;10439551;28;20076;-64
2022/07/15 17:16:31;;;;;;;1.33;0.50;;;;;;;23.87;29.43;100493.16;10416129;28;20293;-64
2022/07/15 17:21:33;;;;;;;3.13;1.15;;;;;;;23.82;29.56;100498.31;10438339;28;20049;-63
2022/07/15 17:26:35;;;;;;;3.28;0.90;;;;;;;23.74;29.04;100498.50;10436457;28;20182;-63
2022/07/15 17:31:36;;;;;;;2.13;0.80;;;;;;;23.77;29.82;100506.25;10439841;28;20702;-63
2022/07/15 17:36:38;;;;;;;3.15;1.23;;;;;;;23.60;30.33;100512.06;10435530;28;20530;-64
2022/07/15 17:41:39;;;;;;;1.40;0.90;;;;;;;23.55;29.06;100506.38;10441051;28;20045;-63
2022/07/15 17:46:40;;;;;;;2.30;0.82;;;;;;;23.47;29.33;100512.81;10441822;28;20157;-63
2022/07/15 17:51:42;;;;;;;1.67;0.82;;;;;;;23.43;29.49;100516.16;10439432;28;20051;-64
2022/07/15 17:56:43;;;;;;;1.63;0.55;;;;;;;23.43;29.74;100513.44;10428172;28;20162;-63
2022/07/15 18:01:45;;;;;;;2.65;1.10;;;;;;;23.33;29.70;100513.81;10430185;28;20139;-64
2022/07/15 18:06:46;;;;;;;2.53;0.77;;;;;;;23.29;29.68;100513.38;10438308;28;20665;-64
2022/07/15 18:11:50;;;;;;;2.80;0.70;;;;;;;23.20;29.95;100522.72;10440696;28;20283;-64
2022/07/15 18:16:52;;;;;;;1.58;0.50;;;;;;;23.15;30.55;100522.50;10433103;28;20190;-63
2022/07/15 18:21:54;;;;;;;2.75;0.77;;;;;;;23.10;30.23;100514.94;10437019;28;20121;-62
2022/07/15 18:26:55;;;;;;;2.17;0.70;;;;;;;22.98;31.26;100518.38;10428659;28;20294;-62
2022/07/15 18:31:57;;;;;;;2.50;0.60;;;;;;;22.82;30.20;100523.09;10435368;28;20048;-62
2022/07/15 18:36:58;;;;;;;1.52;0.57;;;;;;;22.70;30.52;100525.50;10435283;28;20119;-62
2022/07/15 18:42:00;;;;;;;4.07;0.70;;;;;;;22.51;30.45;100521.56;10427777;28;20205;-62
2022/07/15 18:47:01;;;;;;;2.25;0.63;;;;;;;22.60;31.93;100531.25;10419733;28;20125;-62
2022/07/15 18:52:03;;;;;;;1.40;0.60;;;;;;;22.58;31.50;100530.59;10432037;28;20508;-63
2022/07/15 18:57:04;;;;;;;2.13;0.60;;;;;;;22.48;31.18;100526.56;10429573;28;20052;-62
2022/07/15 19:02:06;;;;;;;3.72;0.90;;;;;;;22.41;32.79;100534.63;10431277;28;20141;-62
2022/07/15 19:07:07;;;;;;;2.85;1.00;;;;;;;22.33;33.55;100524.75;10413479;28;21284;-63
2022/07/15 19:12:09;;;;;;;2.40;1.13;;;;;;;22.29;33.38;100538.84;10426670;28;20186;-63
2022/07/15 19:17:11;;;;;;;1.83;0.90;;;;;;;22.22;32.70;100544.22;10413138;28;20189;-63
2022/07/15 19:22:12;;;;;;;2.63;1.05;;;;;;;22.17;33.85;100542.09;10433521;28;20060;-62
2022/07/15 19:27:14;;;;;;;3.92;1.58;;;;;;;22.14;36.54;100541.63;10443888;28;20146;-56
2022/07/15 19:32:15;;;;;;;3.22;1.00;;;;;;;22.11;36.31;100553.69;10421757;28;20489;-56
2022/07/15 19:37:17;;;;;;;3.65;1.17;;;;;;;22.05;35.59;100559.88;10436789;28;20146;-59
2022/07/15 19:42:18;;;;;;;5.97;1.55;;;;;;;22.02;34.75;100560.25;10437620;28;20126;-58
2022/07/15 19:47:19;;;;;;;5.65;2.10;;;;;;;21.99;36.15;100560.66;10433738;28;20579;-59
2022/07/15 19:52:21;;;;;;;7.72;2.85;;;;;;;21.94;35.34;100571.22;10435019;28;20102;-59
2022/07/15 19:57:23;;;;;;;8.55;4.47;;;;;;;21.89;36.02;100572.63;10437724;28;20080;-59
2022/07/15 20:02:24;;;;;;;8.73;4.65;;;;;;;21.84;37.79;100577.78;10432945;28;20102;-59
2022/07/15 20:07:26;;;;;;;6.45;3.92;;;;;;;21.78;36.29;100577.69;10429014;28;20675;-57
2022/07/15 20:12:27;;;;;;;9.52;3.72;;;;;;;21.68;36.35;100575.28;10441181;28;20131;-57
2022/07/15 20:17:30;;;;;;;4.50;2.33;;;;;;;21.67;36.30;100579.03;10433897;28;20128;-57
2022/07/15 20:22:31;;;;;;;3.50;1.80;;;;;;;21.58;36.93;100581.00;10439229;28;20067;-59
2022/07/15 20:27:33;;;;;;;5.78;2.00;;;;;;;21.53;37.00;100572.59;10436727;28;20187;-56
2022/07/15 20:32:35;;;;;;;1.83;1.30;;;;;;;21.51;36.75;100582.75;10417157;28;20167;-57
2022/07/15 20:37:36;;;;;;;3.92;1.33;;;;;;;21.46;36.28;100594.13;10438955;28;20052;-57
2022/07/15 20:42:38;;;;;;;3.17;1.55;;;;;;;21.42;37.81;100587.38;10433201;28;20132;-57
2022/07/15 20:47:43;;;;;;;5.95;1.63;;;;;;;21.31;37.91;100585.16;10398498;28;20112;-60
2022/07/15 20:52:48;;;;;;;3.17;1.58;;;;;;;21.30;37.85;100586.19;10395181;28;20044;-60
2022/07/15 20:57:49;;;;;;;5.63;1.80;;;;;;;21.27;37.96;100586.56;10429858;28;20461;-61
2022/07/15 21:02:51;;;;;;;3.38;1.38;;;;;;;21.20;37.41;100589.19;10433149;28;20048;-59
2022/07/15 21:07:53;;;;;;;2.65;1.50;;;;;;;21.15;39.05;100597.84;10434115;28;20048;-59
2022/07/15 21:12:55;;;;;;;4.03;1.95;;;;;;;21.13;38.51;100599.06;10434359;28;20129;-57
2022/07/15 21:17:56;;;;;;;3.40;1.58;;;;;;;21.08;37.94;100607.72;10431579;28;20140;-59
2022/07/15 21:22:58;;;;;;;5.03;1.45;;;;;;;21.02;38.92;100603.88;10401688;28;20095;-58
2022/07/15 21:28:00;;;;;;;2.58;1.35;;;;;;;20.98;38.26;100599.84;10427333;28;20049;-60
2022/07/15 21:33:01;;;;;;;2.72;1.00;;;;;;;20.92;38.50;100597.88;10431973;28;20202;-58
2022/07/15 21:38:03;;;;;;;3.08;1.25;;;;;;;20.89;39.63;100608.25;10423659;28;20049;-59
2022/07/15 21:43:04;;;;;;;1.23;0.75;;;;;;;20.66;38.75;100603.69;10428962;28;20107;-59
2022/07/15 21:48:06;;;;;;;6.53;1.33;;;;;;;20.74;39.23;100609.03;10424973;28;20060;-60
2022/07/15 21:53:07;;;;;;;1.90;0.90;;;;;;;20.75;39.40;100607.19;10426289;28;20128;-57
2022/07/15 21:58:09;;;;;;;3.47;1.73;;;;;;;20.72;39.17;100605.69;10415706;28;20212;-58
2022/07/15 22:03:13;;;;;;;1.42;0.85;;;;;;;20.71;39.03;100611.28;10431054;28;20199;-60
2022/07/15 22:08:15;;;;;;;1.60;1.00;;;;;;;20.65;39.70;100610.09;10422395;28;20447;-60
2022/07/15 22:13:17;;;;;;;2.00;1.33;;;;;;;20.56;40.42;100605.78;10424945;28;20072;-60
2022/07/15 22:18:18;;;;;;;2.13;1.00;;;;;;;20.50;39.78;100610.03;10417019;28;20048;-58
2022/07/15 22:23:20;;;;;;;3.90;1.20;;;;;;;20.52;40.20;100605.28;10421880;28;20063;-60
2022/07/15 22:28:23;;;;;;;2.58;1.20;;;;;;;20.53;39.68;100603.44;10420966;28;20500;-60
2022/07/15 22:33:24;;;;;;;1.55;0.80;;;;;;;20.47;38.59;100608.53;10422984;28;20203;-59
2022/07/15 22:38:26;;;;;;;1.10;0.88;;;;;;;20.47;39.28;100618.50;10425733;28;20059;-56
2022/07/15 22:43:28;;;;;;;1.48;0.80;;;;;;;20.45;40.11;100618.69;10415403;28;20578;-59
2022/07/15 22:48:29;;;;;;;2.08;1.08;;;;;;;20.39;40.30;100616.69;10401399;28;20139;-57
2022/07/15 22:53:31;;;;;;;2.15;0.95;;;;;;;20.34;41.20;100616.38;10418785;28;20517;-57
2022/07/15 22:58:32;;;;;;;2.17;1.00;;;;;;;20.28;41.43;100628.78;10417943;28;20094;-59
2022/07/15 23:03:39;;;;;;;2.33;1.10;;;;;;;20.22;41.72;100623.22;10425256;28;21164;-59
2022/07/15 23:08:40;;;;;;;1.48;1.10;;;;;;;20.14;40.92;100627.66;10418816;28;20049;-57
2022/07/15 23:13:42;;;;;;;2.15;0.95;;;;;;;20.10;41.23;100637.16;10417569;28;20049;-58
2022/07/15 23:18:44;;;;;;;1.48;1.10;;;;;;;19.97;40.92;100644.97;10413958;28;20475;-57
2022/07/15 23:23:45;;;;;;;2.65;1.52;;;;;;;19.88;41.43;100633.34;10423246;28;20118;-57
2022/07/15 23:28:46;;;;;;;2.50;1.27;;;;;;;19.83;41.98;100643.84;10423588;28;20052;-57